CSC847 ZUCK-ZSSS
Flight info
| Callsign | CSC847 |
|---|---|
| Flight time | 1h 53m |
| Altitude | 41100 |
| Route | OLNER2X OLNER B213 WHA R343 SASAN SAS62A |
| Aircraft | A359/H-SDE2E3GHIJ3J4J5LM1ORWXY/LB1D1 |
Departure
| Time | 2026-05-04 12:39 |
|---|---|
| Airport | Chongqing Jiangbei International Airport (ZUCK) |
Arrival
| Time | 2026-05-04 14:32 |
|---|---|
| Airport | Shanghai Hongqiao International Airport (ZSSS) |
| Time | Latitude | Longitude | Altitude | Speed | Heading |
|---|---|---|---|---|---|
| 2026-05-04 12:30 | 29.71494 | 106.65661 | 1348 ft | 0 kts | 300° |
| 2026-05-04 12:32 | 29.71476 | 106.65698 | 1350 ft | 4 kts | 300° |
| 2026-05-04 12:32 | 29.71464 | 106.65721 | 1348 ft | 4 kts | 316° |
| 2026-05-04 12:33 | 29.71443 | 106.65732 | 1350 ft | 4 kts | 14° |
| 2026-05-04 12:33 | 29.71419 | 106.65720 | 1348 ft | 3 kts | 24° |
| 2026-05-04 12:33 | 29.71413 | 106.65717 | 1350 ft | 0 kts | 24° |
| 2026-05-04 12:36 | 29.71415 | 106.65718 | 1350 ft | 2 kts | 24° |
| 2026-05-04 12:36 | 29.71449 | 106.65734 | 1351 ft | 9 kts | 21° |
| 2026-05-04 12:37 | 29.71516 | 106.65770 | 1348 ft | 11 kts | 49° |
| 2026-05-04 12:37 | 29.71517 | 106.65872 | 1348 ft | 15 kts | 105° |
| 2026-05-04 12:37 | 29.71484 | 106.66007 | 1348 ft | 15 kts | 105° |
| 2026-05-04 12:37 | 29.71466 | 106.66083 | 1347 ft | 10 kts | 100° |
| 2026-05-04 12:38 | 29.71482 | 106.66147 | 1349 ft | 8 kts | 52° |
| 2026-05-04 12:38 | 29.71544 | 106.66180 | 1348 ft | 14 kts | 17° |
| 2026-05-04 12:38 | 29.71849 | 106.66284 | 1345 ft | 83 kts | 17° |
| 2026-05-04 12:38 | 29.72631 | 106.66556 | 1340 ft | 148 kts | 17° |
| 2026-05-04 12:39 | 29.73755 | 106.66906 | 1705 ft | 172 kts | 16° |
| 2026-05-04 12:39 | 29.74878 | 106.67313 | 2535 ft | 171 kts | 23° |
| 2026-05-04 12:39 | 29.76070 | 106.67877 | 2913 ft | 202 kts | 27° |
| 2026-05-04 12:39 | 29.77437 | 106.68656 | 3158 ft | 235 kts | 31° |
| 2026-05-04 12:40 | 29.78940 | 106.69668 | 3501 ft | 263 kts | 34° |
| 2026-05-04 12:40 | 29.80519 | 106.70806 | 4240 ft | 272 kts | 34° |
| 2026-05-04 12:40 | 29.82126 | 106.71961 | 5056 ft | 279 kts | 33° |
| 2026-05-04 12:40 | 29.83779 | 106.73151 | 5962 ft | 281 kts | 34° |
| 2026-05-04 12:41 | 29.85299 | 106.74561 | 6954 ft | 281 kts | 46° |
| 2026-05-04 12:41 | 29.86427 | 106.76392 | 7916 ft | 283 kts | 64° |
| 2026-05-04 12:41 | 29.87023 | 106.78564 | 8905 ft | 287 kts | 81° |
| 2026-05-04 12:41 | 29.87225 | 106.80871 | 9906 ft | 292 kts | 86° |
| 2026-05-04 12:42 | 29.87353 | 106.83248 | 10557 ft | 307 kts | 86° |
| 2026-05-04 12:42 | 29.87489 | 106.85805 | 10907 ft | 332 kts | 86° |
| 2026-05-04 12:42 | 29.87643 | 106.88540 | 11417 ft | 348 kts | 85° |
| 2026-05-04 12:42 | 29.87807 | 106.91345 | 12192 ft | 355 kts | 85° |
| 2026-05-04 12:43 | 29.87976 | 106.94204 | 13038 ft | 360 kts | 86° |
| 2026-05-04 12:43 | 29.88140 | 106.97110 | 13848 ft | 366 kts | 85° |
| 2026-05-04 12:43 | 29.88313 | 107.00053 | 14592 ft | 371 kts | 84° |
| 2026-05-04 12:43 | 29.88492 | 107.03038 | 15393 ft | 375 kts | 84° |
| 2026-05-04 12:44 | 29.88667 | 107.06055 | 16169 ft | 380 kts | 85° |
| 2026-05-04 12:44 | 29.88841 | 107.09116 | 16901 ft | 385 kts | 85° |
| 2026-05-04 12:44 | 29.89019 | 107.12171 | 17659 ft | 390 kts | 85° |
| 2026-05-04 12:44 | 29.89203 | 107.15303 | 18396 ft | 394 kts | 84° |
| 2026-05-04 12:45 | 29.89391 | 107.18479 | 19058 ft | 399 kts | 84° |
| 2026-05-04 12:45 | 29.89581 | 107.21690 | 19729 ft | 403 kts | 84° |
| 2026-05-04 12:45 | 29.89772 | 107.24941 | 20409 ft | 408 kts | 84° |
| 2026-05-04 12:45 | 29.89966 | 107.28227 | 21087 ft | 414 kts | 84° |
| 2026-05-04 12:46 | 29.90160 | 107.31560 | 21770 ft | 419 kts | 84° |
| 2026-05-04 12:46 | 29.90357 | 107.34935 | 22440 ft | 424 kts | 84° |
| 2026-05-04 12:46 | 29.90556 | 107.38345 | 23118 ft | 429 kts | 84° |
| 2026-05-04 12:46 | 29.90756 | 107.41797 | 23724 ft | 435 kts | 84° |
| 2026-05-04 12:47 | 29.90959 | 107.45304 | 24200 ft | 441 kts | 84° |
| 2026-05-04 12:47 | 29.91164 | 107.48854 | 24721 ft | 447 kts | 84° |
| 2026-05-04 12:47 | 29.91370 | 107.52454 | 25227 ft | 452 kts | 84° |
| 2026-05-04 12:47 | 29.91573 | 107.56043 | 25730 ft | 457 kts | 84° |
| 2026-05-04 12:48 | 29.91781 | 107.59723 | 26246 ft | 462 kts | 84° |
| 2026-05-04 12:48 | 29.91990 | 107.63443 | 26755 ft | 467 kts | 84° |
| 2026-05-04 12:48 | 29.92201 | 107.67204 | 27248 ft | 472 kts | 84° |
| 2026-05-04 12:48 | 29.92418 | 107.71001 | 27704 ft | 478 kts | 84° |
| 2026-05-04 12:49 | 29.92633 | 107.74840 | 28243 ft | 482 kts | 84° |
| 2026-05-04 12:49 | 29.92849 | 107.78717 | 28691 ft | 488 kts | 84° |
| 2026-05-04 12:49 | 29.93264 | 107.82619 | 29114 ft | 489 kts | 75° |
| 2026-05-04 12:49 | 29.93771 | 107.85155 | 29460 ft | 490 kts | 73° |
| 2026-05-04 12:50 | 29.94942 | 107.90216 | 30090 ft | 495 kts | 71° |
| 2026-05-04 12:50 | 29.95912 | 107.94039 | 30471 ft | 499 kts | 69° |
| 2026-05-04 12:50 | 29.96924 | 107.97890 | 30827 ft | 504 kts | 69° |
| 2026-05-04 12:50 | 29.97613 | 108.00510 | 31055 ft | 508 kts | 69° |
| 2026-05-04 12:51 | 29.98629 | 108.04429 | 31411 ft | 512 kts | 70° |
| 2026-05-04 12:51 | 29.99636 | 108.08393 | 31756 ft | 517 kts | 70° |
| 2026-05-04 12:51 | 30.00638 | 108.12394 | 32074 ft | 521 kts | 70° |
| 2026-05-04 12:51 | 30.01641 | 108.16436 | 32405 ft | 525 kts | 71° |
| 2026-05-04 12:52 | 30.02637 | 108.20453 | 32719 ft | 530 kts | 70° |
| 2026-05-04 12:52 | 30.03656 | 108.24564 | 33022 ft | 534 kts | 70° |
| 2026-05-04 12:52 | 30.04675 | 108.28693 | 33331 ft | 536 kts | 70° |
| 2026-05-04 12:52 | 30.05703 | 108.32845 | 33571 ft | 540 kts | 70° |
| 2026-05-04 12:53 | 30.06745 | 108.37022 | 33797 ft | 544 kts | 70° |
| 2026-05-04 12:53 | 30.07801 | 108.41248 | 34071 ft | 548 kts | 70° |
| 2026-05-04 12:53 | 30.08860 | 108.45487 | 34326 ft | 551 kts | 71° |
| 2026-05-04 12:53 | 30.09921 | 108.49743 | 34570 ft | 553 kts | 70° |
| 2026-05-04 12:54 | 30.10985 | 108.54024 | 34884 ft | 554 kts | 70° |
| 2026-05-04 12:54 | 30.12054 | 108.58297 | 35239 ft | 553 kts | 70° |
| 2026-05-04 12:54 | 30.13216 | 108.62533 | 35571 ft | 552 kts | 68° |
| 2026-05-04 12:54 | 30.14453 | 108.66725 | 35910 ft | 551 kts | 66° |
| 2026-05-04 12:55 | 30.15700 | 108.70850 | 36295 ft | 550 kts | 66° |
| 2026-05-04 12:55 | 30.16962 | 108.75026 | 36667 ft | 548 kts | 66° |
| 2026-05-04 12:55 | 30.18213 | 108.79194 | 36992 ft | 549 kts | 67° |
| 2026-05-04 12:55 | 30.19452 | 108.83377 | 37203 ft | 551 kts | 67° |
| 2026-05-04 12:56 | 30.20684 | 108.87589 | 37440 ft | 552 kts | 67° |
| 2026-05-04 12:56 | 30.21903 | 108.91800 | 37761 ft | 552 kts | 67° |
| 2026-05-04 12:56 | 30.23101 | 108.96033 | 38022 ft | 554 kts | 68° |
| 2026-05-04 12:56 | 30.24197 | 109.00318 | 38229 ft | 556 kts | 69° |
| 2026-05-04 12:57 | 30.25234 | 109.04589 | 38438 ft | 557 kts | 70° |
| 2026-05-04 12:57 | 30.26262 | 109.08910 | 38707 ft | 558 kts | 70° |
| 2026-05-04 12:57 | 30.27291 | 109.13238 | 38908 ft | 558 kts | 70° |
| 2026-05-04 12:57 | 30.28333 | 109.17580 | 39037 ft | 561 kts | 70° |
| 2026-05-04 12:58 | 30.29390 | 109.21924 | 39256 ft | 560 kts | 70° |
| 2026-05-04 12:58 | 30.30449 | 109.26264 | 39524 ft | 559 kts | 70° |
| 2026-05-04 12:58 | 30.31506 | 109.30587 | 39786 ft | 557 kts | 70° |
| 2026-05-04 12:58 | 30.32562 | 109.34894 | 40028 ft | 556 kts | 70° |
| 2026-05-04 12:59 | 30.33617 | 109.39201 | 40326 ft | 555 kts | 70° |
| 2026-05-04 12:59 | 30.34667 | 109.43486 | 40589 ft | 553 kts | 70° |
| 2026-05-04 12:59 | 30.35704 | 109.47721 | 40861 ft | 552 kts | 70° |
| 2026-05-04 12:59 | 30.36742 | 109.52010 | 41002 ft | 553 kts | 71° |
| 2026-05-04 13:00 | 30.37766 | 109.56309 | 41138 ft | 554 kts | 71° |
| 2026-05-04 13:00 | 30.39464 | 109.65079 | 41189 ft | 563 kts | 77° |
| 2026-05-04 13:01 | 30.40821 | 109.74039 | 41183 ft | 565 kts | 77° |
| 2026-05-04 13:01 | 30.42120 | 109.83024 | 41181 ft | 564 kts | 78° |
| 2026-05-04 13:02 | 30.43411 | 109.91997 | 41189 ft | 564 kts | 78° |
| 2026-05-04 13:02 | 30.44691 | 110.00935 | 41188 ft | 566 kts | 78° |
| 2026-05-04 13:03 | 30.45977 | 110.09936 | 41190 ft | 565 kts | 78° |
| 2026-05-04 13:03 | 30.47271 | 110.18935 | 41202 ft | 565 kts | 78° |
| 2026-05-04 13:04 | 30.48552 | 110.27938 | 41190 ft | 565 kts | 78° |
| 2026-05-04 13:04 | 30.49835 | 110.36926 | 41189 ft | 565 kts | 77° |
| 2026-05-04 13:05 | 30.51132 | 110.45919 | 41191 ft | 566 kts | 78° |
| 2026-05-04 13:05 | 30.52395 | 110.54920 | 41182 ft | 566 kts | 79° |
| 2026-05-04 13:06 | 30.53643 | 110.63875 | 41179 ft | 565 kts | 78° |
| 2026-05-04 13:06 | 30.54912 | 110.72903 | 41178 ft | 566 kts | 78° |
| 2026-05-04 13:07 | 30.56169 | 110.81934 | 41168 ft | 567 kts | 79° |
| 2026-05-04 13:07 | 30.57406 | 110.90950 | 41155 ft | 565 kts | 79° |
| 2026-05-04 13:08 | 30.58630 | 110.99893 | 41124 ft | 565 kts | 78° |
| 2026-05-04 13:08 | 30.59863 | 111.08903 | 41118 ft | 564 kts | 78° |
| 2026-05-04 13:09 | 30.61120 | 111.17893 | 41106 ft | 563 kts | 78° |
| 2026-05-04 13:09 | 30.62332 | 111.26864 | 41107 ft | 561 kts | 79° |
| 2026-05-04 13:10 | 30.63522 | 111.35830 | 41104 ft | 562 kts | 79° |
| 2026-05-04 13:10 | 30.64721 | 111.44791 | 41102 ft | 562 kts | 78° |
| 2026-05-04 13:11 | 30.65449 | 111.53852 | 41101 ft | 564 kts | 84° |
| 2026-05-04 13:11 | 30.65957 | 111.62952 | 41104 ft | 564 kts | 84° |
| 2026-05-04 13:12 | 30.66425 | 111.72043 | 41103 ft | 564 kts | 85° |
| 2026-05-04 13:12 | 30.66883 | 111.81091 | 41108 ft | 564 kts | 85° |
| 2026-05-04 13:13 | 30.67339 | 111.90205 | 41104 ft | 565 kts | 85° |
| 2026-05-04 13:13 | 30.67800 | 111.99335 | 41105 ft | 566 kts | 84° |
| 2026-05-04 13:14 | 30.68410 | 112.08441 | 41102 ft | 564 kts | 83° |
| 2026-05-04 13:14 | 30.69070 | 112.17510 | 41107 ft | 562 kts | 83° |
| 2026-05-04 13:15 | 30.69706 | 112.26574 | 41099 ft | 563 kts | 83° |
| 2026-05-04 13:15 | 30.70316 | 112.35651 | 41098 ft | 563 kts | 84° |
| 2026-05-04 13:16 | 30.70913 | 112.44724 | 41100 ft | 563 kts | 84° |
| 2026-05-04 13:16 | 30.71501 | 112.53762 | 41101 ft | 564 kts | 84° |
| 2026-05-04 13:17 | 30.72087 | 112.62851 | 41097 ft | 564 kts | 84° |
| 2026-05-04 13:17 | 30.72666 | 112.71955 | 41100 ft | 564 kts | 84° |
| 2026-05-04 13:18 | 30.73241 | 112.81059 | 41101 ft | 564 kts | 84° |
| 2026-05-04 13:18 | 30.73812 | 112.90166 | 41102 ft | 566 kts | 84° |
| 2026-05-04 13:19 | 30.74376 | 112.99286 | 41103 ft | 566 kts | 84° |
| 2026-05-04 13:19 | 30.74929 | 113.08364 | 41149 ft | 566 kts | 84° |
| 2026-05-04 13:20 | 30.75461 | 113.17497 | 41104 ft | 564 kts | 86° |
| 2026-05-04 13:20 | 30.75719 | 113.26616 | 41101 ft | 565 kts | 88° |
| 2026-05-04 13:21 | 30.75880 | 113.35757 | 41100 ft | 565 kts | 88° |
| 2026-05-04 13:21 | 30.76068 | 113.44823 | 41107 ft | 565 kts | 88° |
| 2026-05-04 13:22 | 30.76283 | 113.53963 | 41097 ft | 566 kts | 87° |
| 2026-05-04 13:22 | 30.76503 | 113.63133 | 41102 ft | 566 kts | 87° |
| 2026-05-04 13:23 | 30.76713 | 113.72284 | 41097 ft | 566 kts | 88° |
| 2026-05-04 13:23 | 30.76917 | 113.81439 | 41098 ft | 567 kts | 88° |
| 2026-05-04 13:24 | 30.77112 | 113.90556 | 41106 ft | 567 kts | 88° |
| 2026-05-04 13:24 | 30.77302 | 113.99736 | 41112 ft | 568 kts | 88° |
| 2026-05-04 13:25 | 30.77761 | 114.13497 | 41121 ft | 568 kts | 86° |
| 2026-05-04 13:25 | 30.78982 | 114.22509 | 41152 ft | 562 kts | 68° |
| 2026-05-04 13:26 | 30.81592 | 114.31049 | 41119 ft | 558 kts | 66° |
| 2026-05-04 13:26 | 30.84338 | 114.39436 | 41101 ft | 557 kts | 66° |
| 2026-05-04 13:27 | 30.87084 | 114.47878 | 41109 ft | 559 kts | 66° |
| 2026-05-04 13:27 | 30.89838 | 114.56359 | 41107 ft | 559 kts | 66° |
| 2026-05-04 13:28 | 30.92592 | 114.64828 | 41108 ft | 559 kts | 66° |
| 2026-05-04 13:28 | 30.95326 | 114.73268 | 41115 ft | 559 kts | 66° |
| 2026-05-04 13:29 | 30.98054 | 114.81728 | 41115 ft | 557 kts | 66° |
| 2026-05-04 13:29 | 31.00775 | 114.90191 | 41115 ft | 557 kts | 66° |
| 2026-05-04 13:30 | 31.03486 | 114.98659 | 41117 ft | 557 kts | 66° |
| 2026-05-04 13:30 | 31.06193 | 115.07119 | 41138 ft | 558 kts | 66° |
| 2026-05-04 13:31 | 31.08884 | 115.15547 | 41138 ft | 558 kts | 66° |
| 2026-05-04 13:31 | 31.11586 | 115.24043 | 41148 ft | 558 kts | 67° |
| 2026-05-04 13:32 | 31.14271 | 115.32527 | 41143 ft | 556 kts | 66° |
| 2026-05-04 13:32 | 31.17009 | 115.40976 | 41146 ft | 557 kts | 66° |
| 2026-05-04 13:33 | 31.19767 | 115.49460 | 41152 ft | 558 kts | 66° |
| 2026-05-04 13:33 | 31.22510 | 115.57947 | 41156 ft | 558 kts | 66° |
| 2026-05-04 13:34 | 31.25238 | 115.66434 | 41163 ft | 558 kts | 66° |
| 2026-05-04 13:34 | 31.27947 | 115.74876 | 41160 ft | 559 kts | 66° |
| 2026-05-04 13:35 | 31.32034 | 115.87665 | 41159 ft | 559 kts | 66° |
| 2026-05-04 13:36 | 31.34780 | 115.96175 | 41145 ft | 559 kts | 66° |
| 2026-05-04 13:36 | 31.37549 | 116.04643 | 41149 ft | 560 kts | 66° |
| 2026-05-04 13:37 | 31.40327 | 116.13165 | 41148 ft | 560 kts | 66° |
| 2026-05-04 13:37 | 31.43089 | 116.21678 | 41139 ft | 559 kts | 66° |
| 2026-05-04 13:38 | 31.45378 | 116.28759 | 41133 ft | 559 kts | 66° |
| 2026-05-04 13:38 | 31.48595 | 116.38737 | 41128 ft | 560 kts | 66° |
| 2026-05-04 13:39 | 31.51326 | 116.47232 | 41127 ft | 560 kts | 66° |
| 2026-05-04 13:39 | 31.53625 | 116.54402 | 41121 ft | 560 kts | 66° |
| 2026-05-04 13:40 | 31.56364 | 116.62965 | 41137 ft | 560 kts | 67° |
| 2026-05-04 13:40 | 31.59075 | 116.71466 | 41118 ft | 559 kts | 67° |
| 2026-05-04 13:41 | 31.61795 | 116.80011 | 41122 ft | 559 kts | 67° |
| 2026-05-04 13:41 | 31.64508 | 116.88559 | 41107 ft | 559 kts | 67° |
| 2026-05-04 13:42 | 31.68579 | 117.01425 | 41121 ft | 561 kts | 67° |
| 2026-05-04 13:42 | 31.71264 | 117.10029 | 41122 ft | 560 kts | 68° |
| 2026-05-04 13:43 | 31.73907 | 117.18633 | 41108 ft | 559 kts | 68° |
| 2026-05-04 13:43 | 31.76397 | 117.27303 | 41130 ft | 562 kts | 75° |
| 2026-05-04 13:44 | 31.77005 | 117.31843 | 41128 ft | 563 kts | 86° |
| 2026-05-04 13:44 | 31.77012 | 117.36377 | 41127 ft | 563 kts | 93° |
| 2026-05-04 13:44 | 31.76504 | 117.45585 | 41128 ft | 565 kts | 96° |
| 2026-05-04 13:45 | 31.75806 | 117.54796 | 41126 ft | 566 kts | 96° |
| 2026-05-04 13:45 | 31.75112 | 117.64014 | 41131 ft | 566 kts | 96° |
| 2026-05-04 13:46 | 31.74445 | 117.73252 | 41133 ft | 566 kts | 96° |
| 2026-05-04 13:46 | 31.73791 | 117.82423 | 41132 ft | 566 kts | 96° |
| 2026-05-04 13:47 | 31.73128 | 117.91648 | 41135 ft | 566 kts | 96° |
| 2026-05-04 13:47 | 31.72455 | 118.00858 | 41141 ft | 566 kts | 96° |
| 2026-05-04 13:48 | 31.71776 | 118.10063 | 41126 ft | 564 kts | 96° |
| 2026-05-04 13:48 | 31.71116 | 118.19260 | 41136 ft | 565 kts | 96° |
| 2026-05-04 13:49 | 31.70489 | 118.28411 | 41133 ft | 565 kts | 96° |
| 2026-05-04 13:49 | 31.69846 | 118.37616 | 41121 ft | 565 kts | 96° |
| 2026-05-04 13:50 | 31.69190 | 118.46826 | 41138 ft | 566 kts | 96° |
| 2026-05-04 13:50 | 31.68519 | 118.56034 | 41141 ft | 566 kts | 96° |
| 2026-05-04 13:51 | 31.67845 | 118.65260 | 41143 ft | 566 kts | 97° |
| 2026-05-04 13:51 | 31.67175 | 118.74420 | 41147 ft | 567 kts | 97° |
| 2026-05-04 13:52 | 31.66138 | 118.88264 | 41147 ft | 567 kts | 97° |
| 2026-05-04 13:53 | 31.65436 | 118.97476 | 41147 ft | 567 kts | 97° |
| 2026-05-04 13:53 | 31.64732 | 119.06700 | 41144 ft | 568 kts | 97° |
| 2026-05-04 13:54 | 31.64021 | 119.20592 | 41148 ft | 569 kts | 95° |
| 2026-05-04 13:55 | 31.63482 | 119.34451 | 41179 ft | 570 kts | 94° |
| 2026-05-04 13:55 | 31.62882 | 119.48355 | 41153 ft | 568 kts | 95° |
| 2026-05-04 13:56 | 31.62433 | 119.57617 | 41150 ft | 569 kts | 95° |
| 2026-05-04 13:57 | 31.61754 | 119.71528 | 41156 ft | 569 kts | 95° |
| 2026-05-04 13:58 | 31.61622 | 119.90075 | 41162 ft | 572 kts | 76° |
| 2026-05-04 13:58 | 31.64914 | 119.98372 | 40707 ft | 555 kts | 47° |
| 2026-05-04 13:58 | 31.67556 | 120.01593 | 40239 ft | 543 kts | 33° |
| 2026-05-04 13:59 | 31.70619 | 120.03948 | 39705 ft | 527 kts | 19° |
| 2026-05-04 13:59 | 31.73991 | 120.05401 | 39127 ft | 508 kts | 5° |
| 2026-05-04 13:59 | 31.80888 | 120.06193 | 37656 ft | 493 kts | 354° |
| 2026-05-04 14:00 | 31.84303 | 120.06334 | 36916 ft | 492 kts | 354° |
| 2026-05-04 14:00 | 31.91159 | 120.06587 | 35456 ft | 491 kts | 354° |
| 2026-05-04 14:00 | 31.94577 | 120.06705 | 34756 ft | 490 kts | 354° |
| 2026-05-04 14:01 | 31.97985 | 120.06797 | 34024 ft | 490 kts | 354° |
| 2026-05-04 14:01 | 32.01393 | 120.06877 | 33283 ft | 487 kts | 354° |
| 2026-05-04 14:01 | 32.08102 | 120.07005 | 32009 ft | 478 kts | 354° |
| 2026-05-04 14:02 | 32.11378 | 120.07050 | 31422 ft | 474 kts | 354° |
| 2026-05-04 14:02 | 32.14666 | 120.07086 | 30846 ft | 470 kts | 354° |
| 2026-05-04 14:02 | 32.17916 | 120.07106 | 30317 ft | 464 kts | 355° |
| 2026-05-04 14:02 | 32.21119 | 120.07032 | 29791 ft | 457 kts | 354° |
| 2026-05-04 14:03 | 32.24283 | 120.06913 | 29191 ft | 452 kts | 354° |
| 2026-05-04 14:03 | 32.27412 | 120.06790 | 28593 ft | 448 kts | 354° |
| 2026-05-04 14:03 | 32.30512 | 120.06687 | 27995 ft | 444 kts | 355° |
| 2026-05-04 14:03 | 32.33601 | 120.06932 | 27445 ft | 445 kts | 4° |
| 2026-05-04 14:04 | 32.39440 | 120.09216 | 26364 ft | 449 kts | 26° |
| 2026-05-04 14:04 | 32.41992 | 120.11337 | 25968 ft | 446 kts | 38° |
| 2026-05-04 14:04 | 32.44127 | 120.13995 | 25427 ft | 447 kts | 50° |
| 2026-05-04 14:05 | 32.46836 | 120.20593 | 24343 ft | 448 kts | 75° |
| 2026-05-04 14:05 | 32.47293 | 120.24236 | 23827 ft | 446 kts | 86° |
| 2026-05-04 14:05 | 32.47133 | 120.27889 | 23240 ft | 444 kts | 98° |
| 2026-05-04 14:06 | 32.46372 | 120.31412 | 22629 ft | 440 kts | 111° |
| 2026-05-04 14:06 | 32.45019 | 120.34642 | 22029 ft | 435 kts | 124° |
| 2026-05-04 14:06 | 32.43133 | 120.37413 | 21437 ft | 429 kts | 137° |
| 2026-05-04 14:06 | 32.40826 | 120.39594 | 20859 ft | 421 kts | 151° |
| 2026-05-04 14:07 | 32.38261 | 120.41093 | 20298 ft | 413 kts | 163° |
| 2026-05-04 14:07 | 32.35530 | 120.42052 | 19693 ft | 405 kts | 176° |
| 2026-05-04 14:07 | 32.32757 | 120.42047 | 19153 ft | 395 kts | 189° |
| 2026-05-04 14:07 | 32.30034 | 120.41701 | 18586 ft | 391 kts | 191° |
| 2026-05-04 14:08 | 32.27346 | 120.41315 | 17998 ft | 388 kts | 191° |
| 2026-05-04 14:08 | 32.24679 | 120.40934 | 17379 ft | 385 kts | 191° |
| 2026-05-04 14:08 | 32.22030 | 120.40560 | 16776 ft | 381 kts | 191° |
| 2026-05-04 14:08 | 32.19408 | 120.40194 | 16201 ft | 378 kts | 190° |
| 2026-05-04 14:09 | 32.14229 | 120.39473 | 15048 ft | 371 kts | 189° |
| 2026-05-04 14:09 | 32.11671 | 120.39121 | 14503 ft | 368 kts | 189° |
| 2026-05-04 14:10 | 32.06619 | 120.38426 | 13301 ft | 363 kts | 189° |
| 2026-05-04 14:10 | 32.04116 | 120.38082 | 12651 ft | 361 kts | 189° |
| 2026-05-04 14:10 | 32.01630 | 120.37742 | 12122 ft | 358 kts | 189° |
| 2026-05-04 14:10 | 31.99152 | 120.37402 | 11894 ft | 358 kts | 189° |
| 2026-05-04 14:11 | 31.96704 | 120.37065 | 11870 ft | 359 kts | 189° |
| 2026-05-04 14:11 | 31.91749 | 120.36385 | 11876 ft | 358 kts | 189° |
| 2026-05-04 14:11 | 31.89273 | 120.36045 | 11876 ft | 358 kts | 189° |
| 2026-05-04 14:12 | 31.86793 | 120.35715 | 11873 ft | 358 kts | 188° |
| 2026-05-04 14:12 | 31.84295 | 120.35740 | 11870 ft | 361 kts | 174° |
| 2026-05-04 14:12 | 31.79836 | 120.38299 | 11816 ft | 365 kts | 135° |
| 2026-05-04 14:13 | 31.78162 | 120.40544 | 11811 ft | 365 kts | 130° |
| 2026-05-04 14:13 | 31.76558 | 120.42859 | 11808 ft | 365 kts | 129° |
| 2026-05-04 14:13 | 31.74961 | 120.45172 | 11808 ft | 365 kts | 129° |
| 2026-05-04 14:13 | 31.73363 | 120.47485 | 11795 ft | 365 kts | 129° |
| 2026-05-04 14:14 | 31.71768 | 120.49799 | 11792 ft | 365 kts | 129° |
| 2026-05-04 14:14 | 31.68565 | 120.54413 | 11480 ft | 363 kts | 129° |
| 2026-05-04 14:14 | 31.66968 | 120.56702 | 11231 ft | 362 kts | 129° |
| 2026-05-04 14:15 | 31.63778 | 120.61264 | 10746 ft | 360 kts | 129° |
| 2026-05-04 14:15 | 31.60598 | 120.65801 | 10269 ft | 358 kts | 128° |
| 2026-05-04 14:16 | 31.57472 | 120.70256 | 9839 ft | 347 kts | 128° |
| 2026-05-04 14:16 | 31.55978 | 120.72382 | 9813 ft | 327 kts | 128° |
| 2026-05-04 14:17 | 31.53224 | 120.76300 | 9816 ft | 305 kts | 128° |
| 2026-05-04 14:17 | 31.51878 | 120.78216 | 9809 ft | 305 kts | 128° |
| 2026-05-04 14:17 | 31.49173 | 120.82061 | 9808 ft | 305 kts | 128° |
| 2026-05-04 14:18 | 31.47824 | 120.83976 | 9807 ft | 305 kts | 128° |
| 2026-05-04 14:18 | 31.45131 | 120.87796 | 9518 ft | 303 kts | 128° |
| 2026-05-04 14:19 | 31.42454 | 120.91590 | 9008 ft | 301 kts | 129° |
| 2026-05-04 14:19 | 31.41122 | 120.93476 | 8745 ft | 299 kts | 129° |
| 2026-05-04 14:19 | 31.39962 | 120.95446 | 8506 ft | 297 kts | 115° |
| 2026-05-04 14:19 | 31.39180 | 120.97673 | 8262 ft | 295 kts | 108° |
| 2026-05-04 14:20 | 31.38501 | 120.99934 | 8008 ft | 294 kts | 108° |
| 2026-05-04 14:20 | 31.37830 | 121.02188 | 7757 ft | 293 kts | 108° |
| 2026-05-04 14:20 | 31.37155 | 121.04439 | 7520 ft | 292 kts | 108° |
| 2026-05-04 14:21 | 31.35796 | 121.08927 | 7038 ft | 291 kts | 108° |
| 2026-05-04 14:21 | 31.35119 | 121.11152 | 6799 ft | 290 kts | 109° |
| 2026-05-04 14:21 | 31.34441 | 121.13374 | 6565 ft | 289 kts | 109° |
| 2026-05-04 14:21 | 31.33752 | 121.15586 | 6312 ft | 288 kts | 109° |
| 2026-05-04 14:22 | 31.33074 | 121.17756 | 6059 ft | 287 kts | 109° |
| 2026-05-04 14:22 | 31.32290 | 121.19892 | 5921 ft | 286 kts | 121° |
| 2026-05-04 14:22 | 31.30935 | 121.21546 | 5915 ft | 283 kts | 149° |
| 2026-05-04 14:22 | 31.29095 | 121.22263 | 5917 ft | 279 kts | 175° |
| 2026-05-04 14:23 | 31.25261 | 121.22507 | 5367 ft | 273 kts | 180° |
| 2026-05-04 14:23 | 31.23371 | 121.22589 | 5014 ft | 271 kts | 179° |
| 2026-05-04 14:23 | 31.21488 | 121.22680 | 4908 ft | 271 kts | 179° |
| 2026-05-04 14:24 | 31.19601 | 121.22777 | 4900 ft | 270 kts | 180° |
| 2026-05-04 14:24 | 31.17754 | 121.22853 | 4900 ft | 270 kts | 180° |
| 2026-05-04 14:24 | 31.15901 | 121.22942 | 4899 ft | 266 kts | 180° |
| 2026-05-04 14:24 | 31.14112 | 121.23038 | 4818 ft | 249 kts | 182° |
| 2026-05-04 14:25 | 31.12470 | 121.23107 | 4700 ft | 226 kts | 180° |
| 2026-05-04 14:25 | 31.09350 | 121.23287 | 4464 ft | 224 kts | 180° |
| 2026-05-04 14:25 | 31.07798 | 121.23373 | 4306 ft | 222 kts | 182° |
| 2026-05-04 14:26 | 31.06257 | 121.23414 | 4120 ft | 221 kts | 184° |
| 2026-05-04 14:26 | 31.05242 | 121.23435 | 3972 ft | 220 kts | 184° |
| 2026-05-04 14:26 | 31.03731 | 121.23685 | 3774 ft | 223 kts | 165° |
| 2026-05-04 14:26 | 31.02163 | 121.25240 | 3517 ft | 230 kts | 121° |
| 2026-05-04 14:27 | 31.01869 | 121.26426 | 3376 ft | 232 kts | 98° |
| 2026-05-04 14:27 | 31.02333 | 121.28864 | 3097 ft | 230 kts | 73° |
| 2026-05-04 14:27 | 31.02687 | 121.30029 | 2921 ft | 230 kts | 74° |
| 2026-05-04 14:27 | 31.03206 | 121.31787 | 2740 ft | 226 kts | 75° |
| 2026-05-04 14:28 | 31.03920 | 121.33312 | 2649 ft | 209 kts | 44° |
| 2026-05-04 14:28 | 31.05111 | 121.34062 | 2633 ft | 185 kts | 16° |
| 2026-05-04 14:28 | 31.06249 | 121.34364 | 2606 ft | 170 kts | 7° |
| 2026-05-04 14:28 | 31.07431 | 121.34316 | 2296 ft | 170 kts | 354° |
| 2026-05-04 14:29 | 31.09693 | 121.34180 | 1715 ft | 152 kts | 355° |
| 2026-05-04 14:29 | 31.11727 | 121.34063 | 1322 ft | 146 kts | 354° |
| 2026-05-04 14:30 | 31.12741 | 121.34008 | 1124 ft | 146 kts | 355° |
| 2026-05-04 14:30 | 31.13760 | 121.33953 | 930 ft | 146 kts | 356° |
| 2026-05-04 14:30 | 31.15747 | 121.33846 | 565 ft | 139 kts | 359° |
| 2026-05-04 14:31 | 31.16704 | 121.33794 | 381 ft | 137 kts | 359° |
| 2026-05-04 14:31 | 31.18577 | 121.33695 | 32 ft | 133 kts | 356° |
| 2026-05-04 14:32 | 31.19873 | 121.33626 | 28 ft | 56 kts | 355° |
| 2026-05-04 14:32 | 31.20145 | 121.33607 | 26 ft | 31 kts | 354° |
| 2026-05-04 14:32 | 31.20340 | 121.33530 | 29 ft | 30 kts | 330° |
| 2026-05-04 14:32 | 31.20376 | 121.33505 | 28 ft | 4 kts | 330° |
| 2026-05-04 14:33 | 31.20426 | 121.33471 | 29 ft | 12 kts | 328° |
| 2026-05-04 14:33 | 31.20437 | 121.33463 | 31 ft | 0 kts | 328° |
| 2026-05-04 14:36 | 31.20439 | 121.33461 | 31 ft | 2 kts | 328° |
| 2026-05-04 14:36 | 31.20495 | 121.33421 | 31 ft | 14 kts | 320° |
| 2026-05-04 14:36 | 31.20520 | 121.33343 | 29 ft | 0 kts | 269° |
| 2026-05-04 14:36 | 31.20520 | 121.33333 | 29 ft | 5 kts | 269° |
| 2026-05-04 14:37 | 31.20516 | 121.33215 | 26 ft | 20 kts | 268° |
| 2026-05-04 14:37 | 31.20511 | 121.33080 | 26 ft | 15 kts | 267° |
| 2026-05-04 14:37 | 31.20511 | 121.33040 | 26 ft | 2 kts | 273° |
| 2026-05-04 14:37 | 31.20504 | 121.32955 | 25 ft | 12 kts | 257° |
| 2026-05-04 14:38 | 31.20483 | 121.32911 | 27 ft | 15 kts | 239° |
| 2026-05-04 14:38 | 31.20411 | 121.32874 | 28 ft | 6 kts | 146° |
| 2026-05-04 14:38 | 31.20372 | 121.32929 | 31 ft | 12 kts | 146° |
| 2026-05-04 14:38 | 31.20272 | 121.32946 | 30 ft | 18 kts | 175° |
| 2026-05-04 14:39 | 31.20122 | 121.32955 | 28 ft | 24 kts | 179° |
| 2026-05-04 14:39 | 31.19938 | 121.32965 | 28 ft | 29 kts | 177° |
| 2026-05-04 14:39 | 31.19763 | 121.32972 | 25 ft | 1 kts | 194° |
| 2026-05-04 14:40 | 31.19723 | 121.32818 | 29 ft | 13 kts | 267° |
| 2026-05-04 14:40 | 31.19743 | 121.32767 | 30 ft | 7 kts | 332° |
| 2026-05-04 14:40 | 31.19794 | 121.32759 | 28 ft | 7 kts | 354° |
| 2026-05-04 14:40 | 31.19810 | 121.32757 | 28 ft | 0 kts | 356° |